createdAt,value
2018-01-26T00:01:59.138Z,18.10
2018-01-26T00:04:26.673Z,17.13
2018-01-26T00:06:54.263Z,21.10
2018-01-26T00:09:21.847Z,23.43
2018-01-26T00:11:49.365Z,20.80
2018-01-26T00:14:16.930Z,18.97
2018-01-26T00:16:44.447Z,14.93
2018-01-26T00:19:12.011Z,16.03
2018-01-26T00:21:39.608Z,16.53
2018-01-26T00:24:07.132Z,14.40
2018-01-26T00:26:34.692Z,17.90
2018-01-26T00:29:02.247Z,19.67
2018-01-26T00:31:29.767Z,18.50
2018-01-26T00:33:57.321Z,15.60
2018-01-26T00:36:24.885Z,16.33
2018-01-26T00:38:52.415Z,16.53
2018-01-26T00:41:20.757Z,16.57
2018-01-26T00:43:49.074Z,14.03
2018-01-26T00:46:16.636Z,17.07
2018-01-26T00:48:44.162Z,19.30
2018-01-26T00:51:11.714Z,15.10
2018-01-26T00:53:39.268Z,14.13
2018-01-26T00:56:06.804Z,14.07
2018-01-26T00:58:34.403Z,17.17
2018-01-26T01:01:01.947Z,15.83
2018-01-26T01:03:29.485Z,15.30
2018-01-26T01:05:57.043Z,18.10
2018-01-26T01:08:24.591Z,14.37
2018-01-26T01:10:52.167Z,16.20
2018-01-26T01:13:19.740Z,21.10
2018-01-26T01:15:47.283Z,16.27
2018-01-26T01:18:14.838Z,22.23
2018-01-26T01:20:42.348Z,15.77
2018-01-26T01:23:09.907Z,18.40
2018-01-26T01:25:37.485Z,16.57
2018-01-26T01:28:05.067Z,17.30
2018-01-26T01:30:32.611Z,14.73
2018-01-26T01:33:00.196Z,14.50
2018-01-26T01:35:27.760Z,12.43
2018-01-26T01:37:55.300Z,15.20
2018-01-26T01:40:22.852Z,13.97
2018-01-26T01:42:50.435Z,15.37
2018-01-26T01:45:18.004Z,14.73
2018-01-26T01:47:45.568Z,14.87
2018-01-26T01:50:13.101Z,15.23
2018-01-26T01:52:40.618Z,14.50
2018-01-26T01:55:08.180Z,13.83
2018-01-26T01:57:35.698Z,16.17
2018-01-26T02:00:03.304Z,15.53
2018-01-26T02:02:30.867Z,16.27
2018-01-26T02:04:59.186Z,15.27
2018-01-26T02:07:26.751Z,15.67
2018-01-26T02:09:54.259Z,17.83
2018-01-26T02:12:21.819Z,17.83
2018-01-26T02:14:49.339Z,18.63
2018-01-26T02:17:16.888Z,12.90
2018-01-26T02:19:44.460Z,15.87
2018-01-26T02:22:11.993Z,14.87
2018-01-26T02:24:56.990Z,13.27
2018-01-26T02:27:24.541Z,13.93
2018-01-26T02:29:52.352Z,15.57
2018-01-26T02:32:19.907Z,13.07
2018-01-26T02:34:47.442Z,13.00
2018-01-26T02:37:15.005Z,19.63
2018-01-26T02:39:42.564Z,15.73
2018-01-26T02:42:10.086Z,14.07
2018-01-26T02:44:37.651Z,13.07
2018-01-26T02:47:05.188Z,18.23
2018-01-26T02:49:32.751Z,17.53
2018-01-26T02:52:00.301Z,15.77
2018-01-26T02:54:28.631Z,15.70
2018-01-26T02:56:56.158Z,12.90
2018-01-26T02:59:23.731Z,15.37
2018-01-26T03:01:51.264Z,12.87
2018-01-26T03:04:18.847Z,15.10
2018-01-26T03:06:46.449Z,13.43
2018-01-26T03:09:14.032Z,12.93
2018-01-26T03:11:42.353Z,13.23
2018-01-26T03:14:09.873Z,14.37
2018-01-26T03:16:38.258Z,14.27
2018-01-26T03:19:05.819Z,16.37
2018-01-26T03:21:33.378Z,16.20
2018-01-26T03:24:00.940Z,16.87
2018-01-26T03:26:28.476Z,14.37
2018-01-26T03:28:56.040Z,31.50
2018-01-26T03:31:23.578Z,42.33
2018-01-26T03:33:51.147Z,37.43
2018-01-26T03:36:18.670Z,79.07
2018-01-26T03:38:46.229Z,48.23
2018-01-26T03:41:13.755Z,42.10
2018-01-26T03:43:42.082Z,26.27
2018-01-26T03:46:09.734Z,18.20
2018-01-26T03:48:38.081Z,15.70
2018-01-26T03:51:05.652Z,15.53
2018-01-26T03:53:33.182Z,15.73
2018-01-26T03:56:01.468Z,11.30
2018-01-26T03:58:29.037Z,15.63
2018-01-26T04:00:56.613Z,12.27
2018-01-26T04:03:24.185Z,13.87
2018-01-26T04:05:51.711Z,13.10
2018-01-26T04:08:19.325Z,14.20
2018-01-26T04:10:46.848Z,12.10
2018-01-26T04:13:14.501Z,21.73
2018-01-26T04:15:42.058Z,20.43
2018-01-26T04:18:09.619Z,15.07
2018-01-26T04:20:37.190Z,17.97
2018-01-26T04:23:04.851Z,17.93
2018-01-26T04:25:32.396Z,18.17
2018-01-26T04:27:59.925Z,17.53
2018-01-26T04:30:27.481Z,12.40
2018-01-26T04:32:55.056Z,14.00
2018-01-26T04:35:22.625Z,16.27
2018-01-26T04:37:50.148Z,15.23
2018-01-26T04:40:17.701Z,21.50
2018-01-26T04:42:45.244Z,12.60
2018-01-26T04:45:12.815Z,12.43
2018-01-26T04:47:40.400Z,12.73
2018-01-26T04:50:07.973Z,16.60
2018-01-26T04:52:35.533Z,17.73
2018-01-26T04:55:03.829Z,16.40
2018-01-26T04:57:31.379Z,15.37
2018-01-26T04:59:59.724Z,16.00
2018-01-26T05:02:27.301Z,13.40
2018-01-26T05:04:54.851Z,16.50
2018-01-26T05:07:23.180Z,12.77
2018-01-26T05:09:50.740Z,19.80
2018-01-26T05:12:18.324Z,21.73
2018-01-26T05:14:45.897Z,17.97
2018-01-26T05:17:13.429Z,20.00
2018-01-26T05:19:40.992Z,14.53
2018-01-26T05:22:08.685Z,18.83
2018-01-26T05:24:36.256Z,15.17
2018-01-26T05:27:03.847Z,19.33
2018-01-26T05:29:31.413Z,19.43
2018-01-26T05:31:59.004Z,17.93
2018-01-26T05:34:26.547Z,19.33
2018-01-26T05:36:54.153Z,21.90
2018-01-26T05:39:21.733Z,19.90
2018-01-26T05:41:49.312Z,20.20
2018-01-26T05:44:16.877Z,21.53
2018-01-26T05:46:44.464Z,19.50
2018-01-26T05:49:12.022Z,23.70
2018-01-26T05:51:39.608Z,20.03
2018-01-26T05:54:07.144Z,16.53
2018-01-26T05:56:34.697Z,14.10
2018-01-26T05:59:02.258Z,10.70
2018-01-26T06:01:29.819Z,12.73
2018-01-26T06:03:57.403Z,13.67
2018-01-26T06:06:24.928Z,11.30
2018-01-26T06:08:52.499Z,11.23
2018-01-26T06:11:20.061Z,19.47
2018-01-26T06:13:47.629Z,11.70
2018-01-26T06:16:15.180Z,13.13
2018-01-26T06:18:42.752Z,15.37
2018-01-26T06:21:10.300Z,14.70
2018-01-26T06:23:37.862Z,13.97
2018-01-26T06:26:05.412Z,15.63
2018-01-26T06:28:33.026Z,14.80
2018-01-26T06:31:00.631Z,13.03
2018-01-26T06:33:28.160Z,18.83
2018-01-26T06:35:55.722Z,17.10
2018-01-26T06:38:23.316Z,18.50
2018-01-26T06:40:50.875Z,18.70
2018-01-26T06:43:18.397Z,14.47
2018-01-26T06:45:46.013Z,15.60
2018-01-26T06:48:13.592Z,22.20
2018-01-26T06:50:41.165Z,20.07
2018-01-26T06:53:09.525Z,19.00
2018-01-26T06:55:37.104Z,17.60
2018-01-26T06:58:04.708Z,15.73
2018-01-26T07:00:32.280Z,16.23
2018-01-26T07:02:59.821Z,13.43
2018-01-26T07:05:27.441Z,17.93
2018-01-26T07:07:55.797Z,16.37
2018-01-26T07:10:23.369Z,18.17
2018-01-26T07:12:50.918Z,15.10
2018-01-26T07:15:18.861Z,15.80
2018-01-26T07:17:46.431Z,14.07
2018-01-26T07:20:13.975Z,16.13
2018-01-26T07:22:41.611Z,17.47
2018-01-26T07:25:09.197Z,15.27
2018-01-26T07:27:36.928Z,16.33
2018-01-26T07:30:04.442Z,15.40
2018-01-26T07:32:32.033Z,15.93
2018-01-26T07:34:59.558Z,14.57
2018-01-26T07:37:27.119Z,14.90
2018-01-26T07:39:54.649Z,14.83
2018-01-26T07:42:22.208Z,12.40
2018-01-26T07:44:49.778Z,18.30
2018-01-26T07:47:17.364Z,19.80
2018-01-26T07:49:45.006Z,15.40
2018-01-26T07:52:12.544Z,19.23
2018-01-26T07:54:40.104Z,19.33
2018-01-26T07:57:07.669Z,25.70
2018-01-26T07:59:35.230Z,22.33
2018-01-26T08:02:02.773Z,24.07
2018-01-26T08:04:30.366Z,20.87
2018-01-26T08:06:58.041Z,22.77
2018-01-26T08:09:25.601Z,19.07
2018-01-26T08:11:53.192Z,17.33
2018-01-26T08:14:20.758Z,19.53
2018-01-26T08:16:48.905Z,16.67
2018-01-26T08:19:16.525Z,21.73
2018-01-26T08:21:44.061Z,23.80
2018-01-26T08:24:11.694Z,19.43
2018-01-26T08:26:39.328Z,19.40
2018-01-26T08:29:06.903Z,16.43
2018-01-26T08:31:34.513Z,23.13
2018-01-26T08:34:02.128Z,22.47
2018-01-26T08:36:29.681Z,21.57
2018-01-26T08:38:57.248Z,23.33
2018-01-26T08:41:25.033Z,17.17
2018-01-26T08:43:53.364Z,22.67
2018-01-26T08:46:21.138Z,19.83
2018-01-26T08:48:48.702Z,18.60
2018-01-26T08:51:16.250Z,23.60
2018-01-26T08:53:43.857Z,22.10
2018-01-26T08:56:12.235Z,26.60
2018-01-26T08:58:40.560Z,23.27
2018-01-26T09:01:08.098Z,21.90
2018-01-26T09:03:35.688Z,22.13
2018-01-26T09:06:03.220Z,25.90
2018-01-26T09:08:30.825Z,23.53
2018-01-26T09:10:58.345Z,19.50
2018-01-26T09:13:25.912Z,23.30
2018-01-26T09:15:53.517Z,19.87
2018-01-26T09:18:21.412Z,22.07
2018-01-26T09:20:49.036Z,22.33
2018-01-26T09:23:16.592Z,14.07
2018-01-26T09:25:44.155Z,17.77
2018-01-26T09:28:11.779Z,18.37
2018-01-26T09:30:39.446Z,15.90
2018-01-26T09:33:07.041Z,21.40
2018-01-26T09:35:34.612Z,18.97
2018-01-26T09:38:03.012Z,22.43
2018-01-26T09:40:31.358Z,24.20
2018-01-26T09:42:58.906Z,19.37
2018-01-26T09:45:26.480Z,21.33
2018-01-26T09:47:54.020Z,19.57
2018-01-26T09:50:21.603Z,21.20
2018-01-26T09:52:49.165Z,18.90
2018-01-26T09:55:16.810Z,24.97
2018-01-26T09:57:44.383Z,18.80
2018-01-26T10:00:11.962Z,19.80
2018-01-26T10:02:39.477Z,25.63
2018-01-26T10:05:07.061Z,15.13
2018-01-26T10:07:34.646Z,16.30
2018-01-26T10:10:02.987Z,20.77
2018-01-26T10:12:30.547Z,15.77
2018-01-26T10:14:58.097Z,18.10
2018-01-26T10:17:25.694Z,19.70
2018-01-26T10:19:54.032Z,20.03
2018-01-26T10:22:21.589Z,21.00
2018-01-26T10:24:49.186Z,15.77
2018-01-26T10:27:16.802Z,17.10
2018-01-26T10:29:44.419Z,17.73
2018-01-26T10:32:12.041Z,12.37
2018-01-26T10:34:39.597Z,13.73
2018-01-26T10:37:07.192Z,15.47
2018-01-26T10:39:34.733Z,15.97
2018-01-26T10:42:02.273Z,15.13
2018-01-26T10:44:29.847Z,15.97
2018-01-26T10:46:58.133Z,11.83
2018-01-26T10:49:25.696Z,10.87
2018-01-26T10:51:53.233Z,10.23
2018-01-26T10:54:20.806Z,10.40
2018-01-26T10:56:48.351Z,8.83
2018-01-26T10:59:16.927Z,5.33
2018-01-26T11:01:44.541Z,6.97
2018-01-26T11:04:12.910Z,6.07
2018-01-26T11:06:40.444Z,11.10
2018-01-26T11:09:08.122Z,5.87
2018-01-26T11:11:35.697Z,5.30
2018-01-26T11:14:03.273Z,4.00
2018-01-26T11:16:30.848Z,4.73
2018-01-26T11:18:59.200Z,7.40
2018-01-26T11:21:27.573Z,7.23
2018-01-26T11:23:55.099Z,6.03
2018-01-26T11:26:22.677Z,8.43
2018-01-26T11:28:50.214Z,9.00
2018-01-26T11:31:18.012Z,10.83
2018-01-26T11:33:45.605Z,5.13
2018-01-26T11:36:13.269Z,8.33
2018-01-26T11:38:41.577Z,7.53
2018-01-26T11:41:09.152Z,4.73
2018-01-26T11:43:36.722Z,5.30
2018-01-26T11:46:05.242Z,5.60
2018-01-26T11:48:33.607Z,5.03
2018-01-26T11:51:01.923Z,4.63
2018-01-26T11:53:29.487Z,5.07
2018-01-26T11:55:57.050Z,7.27
2018-01-26T11:58:24.625Z,11.03
2018-01-26T12:00:52.181Z,7.27
2018-01-26T12:03:19.742Z,7.73
2018-01-26T12:05:47.385Z,6.70
2018-01-26T12:08:15.085Z,6.13
2018-01-26T12:10:42.619Z,5.27
2018-01-26T12:13:10.202Z,5.63
2018-01-26T12:15:37.765Z,5.13
2018-01-26T12:18:05.343Z,6.13
2018-01-26T12:20:32.867Z,6.43
2018-01-26T12:23:00.478Z,6.03
2018-01-26T12:25:29.108Z,7.37
2018-01-26T12:27:57.229Z,5.93
2018-01-26T12:30:25.892Z,5.70
2018-01-26T12:32:53.772Z,5.30
2018-01-26T12:35:21.717Z,6.10
2018-01-26T12:37:49.373Z,6.67
2018-01-26T12:40:17.096Z,4.93
2018-01-26T12:42:44.680Z,5.03
2018-01-26T12:45:12.348Z,4.73
2018-01-26T12:47:40.023Z,6.13
2018-01-26T12:50:07.673Z,9.33
2018-01-26T12:52:36.266Z,6.13
2018-01-26T12:55:03.893Z,4.67
2018-01-26T12:57:31.503Z,3.70
2018-01-26T12:59:59.908Z,3.20
2018-01-26T13:02:27.529Z,2.80
2018-01-26T13:04:55.181Z,3.80
2018-01-26T13:07:22.777Z,5.00
2018-01-26T13:09:50.349Z,4.97
2018-01-26T13:12:18.266Z,6.17
2018-01-26T13:14:45.889Z,4.73
2018-01-26T13:17:13.502Z,13.47
2018-01-26T13:19:41.146Z,5.47
2018-01-26T13:22:08.759Z,5.83
2018-01-26T13:24:36.417Z,5.93
2018-01-26T13:27:04.047Z,4.20
2018-01-26T13:29:31.684Z,3.23
2018-01-26T13:31:59.279Z,3.50
2018-01-26T13:34:26.933Z,3.10
2018-01-26T13:36:54.586Z,3.40
2018-01-26T13:39:22.350Z,4.27
2018-01-26T13:41:49.902Z,4.80
2018-01-26T13:44:17.457Z,4.43
2018-01-26T13:46:45.017Z,4.53
2018-01-26T13:49:12.831Z,5.33
2018-01-26T13:51:40.365Z,4.93
2018-01-26T13:54:07.941Z,7.23
2018-01-26T13:56:35.471Z,7.27
2018-01-26T13:59:03.022Z,4.97
2018-01-26T14:01:30.631Z,6.83
2018-01-26T14:03:58.147Z,7.67
2018-01-26T14:06:25.904Z,8.83
2018-01-26T14:08:53.505Z,10.43
2018-01-26T14:11:21.054Z,12.37
2018-01-26T14:13:49.387Z,9.53
2018-01-26T14:16:17.224Z,8.50
2018-01-26T14:18:45.698Z,10.77
2018-01-26T14:21:13.253Z,8.93
2018-01-26T14:23:40.832Z,6.53
2018-01-26T14:26:08.353Z,6.47
2018-01-26T14:28:35.938Z,9.90
2018-01-26T14:31:03.517Z,17.60
2018-01-26T14:33:31.104Z,20.77
2018-01-26T14:35:58.679Z,11.57
2018-01-26T14:38:26.270Z,4.27
2018-01-26T14:40:53.989Z,4.50
2018-01-26T14:43:21.533Z,4.37
2018-01-26T14:45:49.092Z,4.50
2018-01-26T14:48:16.628Z,5.80
2018-01-26T14:50:44.232Z,3.47
2018-01-26T14:53:11.776Z,2.70
2018-01-26T14:55:39.336Z,4.00
2018-01-26T14:58:06.898Z,3.57
2018-01-26T15:00:34.538Z,3.97
2018-01-26T15:03:02.099Z,3.77
2018-01-26T15:05:30.480Z,3.63
2018-01-26T15:07:58.906Z,4.10
2018-01-26T15:10:26.587Z,4.17
2018-01-26T15:12:54.168Z,4.17
2018-01-26T15:15:21.765Z,3.77
2018-01-26T15:17:49.381Z,5.13
2018-01-26T15:20:16.957Z,4.07
2018-01-26T15:22:45.282Z,3.33
2018-01-26T15:25:12.945Z,5.00
2018-01-26T15:27:40.481Z,4.67
2018-01-26T15:30:08.105Z,3.43
2018-01-26T15:32:35.673Z,3.40
2018-01-26T15:35:03.213Z,3.13
2018-01-26T15:37:30.806Z,3.40
2018-01-26T15:39:58.507Z,3.53
2018-01-26T15:42:26.098Z,5.07
2018-01-26T15:44:53.693Z,8.53
2018-01-26T15:47:21.614Z,7.17
2018-01-26T15:49:49.192Z,4.33
2018-01-26T15:52:16.820Z,4.20
2018-01-26T15:54:44.472Z,3.50
2018-01-26T15:57:12.130Z,4.77
2018-01-26T15:59:39.768Z,3.73
2018-01-26T16:02:07.403Z,4.30
2018-01-26T16:04:34.932Z,3.93
2018-01-26T16:07:02.824Z,4.00
2018-01-26T16:09:30.516Z,4.50
2018-01-26T16:11:58.869Z,4.20
2018-01-26T16:14:26.483Z,8.50
2018-01-26T16:16:54.094Z,4.43
2018-01-26T16:19:21.664Z,5.73
2018-01-26T16:21:49.401Z,6.23
2018-01-26T16:24:17.055Z,4.53
2018-01-26T16:26:44.654Z,4.67
2018-01-26T16:29:12.256Z,3.80
2018-01-26T16:31:39.892Z,3.90
2018-01-26T16:34:07.509Z,4.90
2018-01-26T16:36:35.139Z,3.87
2018-01-26T16:39:02.688Z,4.23
2018-01-26T16:41:30.288Z,4.20
2018-01-26T16:43:58.204Z,4.70
2018-01-26T16:46:25.800Z,3.87
2018-01-26T16:48:53.467Z,5.10
2018-01-26T16:51:21.228Z,5.73
2018-01-26T16:53:48.805Z,5.83
2018-01-26T16:56:16.423Z,4.40
2018-01-26T16:58:44.058Z,5.10
2018-01-26T17:01:11.751Z,4.70
2018-01-26T17:03:39.365Z,7.30
2018-01-26T17:06:07.236Z,4.30
2018-01-26T17:08:35.073Z,4.20
2018-01-26T17:11:02.949Z,4.30
2018-01-26T17:13:31.330Z,5.33
2018-01-26T17:15:58.895Z,10.07
2018-01-26T17:18:26.471Z,7.23
2018-01-26T17:20:54.030Z,5.10
2018-01-26T17:23:21.549Z,6.43
2018-01-26T17:25:49.160Z,5.67
2018-01-26T17:28:16.772Z,5.37
2018-01-26T17:30:44.356Z,5.77
2018-01-26T17:33:11.892Z,5.07
2018-01-26T17:35:39.454Z,7.97
2018-01-26T17:38:07.032Z,8.30
2018-01-26T17:40:34.582Z,9.13
2018-01-26T17:43:02.195Z,4.97
2018-01-26T17:45:30.501Z,5.20
2018-01-26T17:47:59.103Z,5.67
2018-01-26T17:50:26.657Z,4.50
2018-01-26T17:52:54.252Z,5.77
2018-01-26T17:55:21.816Z,4.83
2018-01-26T17:57:49.475Z,5.30
2018-01-26T18:00:17.077Z,5.47
2018-01-26T18:02:44.608Z,8.50
2018-01-26T18:05:13.038Z,9.70
2018-01-26T18:07:40.668Z,10.93
2018-01-26T18:10:08.279Z,8.00
2018-01-26T18:12:35.800Z,7.00
2018-01-26T18:15:03.373Z,10.80
2018-01-26T18:17:30.923Z,7.97
2018-01-26T18:19:58.563Z,15.80
2018-01-26T18:22:26.114Z,12.90
2018-01-26T18:24:54.515Z,11.17
2018-01-26T18:27:22.052Z,20.13
2018-01-26T18:29:49.594Z,17.47
2018-01-26T18:32:17.208Z,16.97
2018-01-26T18:34:44.786Z,11.93
2018-01-26T18:37:12.417Z,11.40
2018-01-26T18:39:40.050Z,9.23
2018-01-26T18:42:07.628Z,16.57
2018-01-26T18:44:35.212Z,13.77
2018-01-26T18:47:02.802Z,12.37
2018-01-26T18:49:30.338Z,21.50
2018-01-26T18:51:57.984Z,17.53
2018-01-26T18:54:25.647Z,14.73
2018-01-26T18:56:53.254Z,16.23
2018-01-26T18:59:20.860Z,13.67
2018-01-26T19:01:48.419Z,14.03
2018-01-26T19:04:16.770Z,13.90
2018-01-26T19:06:44.412Z,14.23
2018-01-26T19:09:12.017Z,13.87
2018-01-26T19:11:39.552Z,13.43
2018-01-26T19:14:07.229Z,14.33
2018-01-26T19:16:35.204Z,12.23
2018-01-26T19:19:02.834Z,11.70
2018-01-26T19:21:30.388Z,14.50
2018-01-26T19:23:57.987Z,16.17
2018-01-26T19:26:25.600Z,15.87
2018-01-26T19:28:53.122Z,19.40
2018-01-26T19:31:20.682Z,18.37
2018-01-26T19:33:48.332Z,16.53
2018-01-26T19:36:16.054Z,17.03
2018-01-26T19:38:43.654Z,14.10
2018-01-26T19:41:11.549Z,15.43
2018-01-26T19:43:39.141Z,15.03
2018-01-26T19:46:06.703Z,13.83
2018-01-26T19:48:34.277Z,14.60
2018-01-26T19:51:01.904Z,13.13
2018-01-26T19:53:29.474Z,15.20
2018-01-26T19:55:57.099Z,12.93
2018-01-26T19:58:24.699Z,19.50
2018-01-26T20:00:52.346Z,26.80
2018-01-26T20:03:30.633Z,21.13
2018-01-26T20:06:03.840Z,24.80
2018-01-26T20:08:37.140Z,21.97
2018-01-26T20:11:04.747Z,16.30
2018-01-26T20:13:32.336Z,15.87
2018-01-26T20:16:00.037Z,15.43
2018-01-26T20:18:27.687Z,17.07
2018-01-26T20:20:55.299Z,15.30
2018-01-26T20:23:22.885Z,16.83
2018-01-26T20:25:50.518Z,17.57
2018-01-26T20:28:18.131Z,16.57
2018-01-26T20:30:46.079Z,14.67
2018-01-26T20:33:13.645Z,14.33
2018-01-26T20:35:41.223Z,15.63
2018-01-26T20:38:08.894Z,17.33
2018-01-26T20:40:36.428Z,18.43
2018-01-26T20:43:04.003Z,19.53
2018-01-26T20:45:31.621Z,16.23
2018-01-26T20:47:59.235Z,16.93
2018-01-26T20:50:26.835Z,17.10
2018-01-26T20:52:54.449Z,17.07
2018-01-26T20:55:22.005Z,19.50
2018-01-26T20:57:49.650Z,18.67
2018-01-26T21:00:17.260Z,16.37
2018-01-26T21:02:44.902Z,20.10
2018-01-26T21:05:12.491Z,14.47
2018-01-26T21:07:40.135Z,14.70
2018-01-26T21:10:07.729Z,13.30
2018-01-26T21:12:35.328Z,15.17
2018-01-26T21:15:03.019Z,14.90
2018-01-26T21:17:30.672Z,14.27
2018-01-26T21:19:58.331Z,16.63
2018-01-26T21:22:26.005Z,15.57
2018-01-26T21:24:53.765Z,14.00
2018-01-26T21:27:21.401Z,13.53
2018-01-26T21:29:49.809Z,15.70
2018-01-26T21:32:17.518Z,15.13
2018-01-26T21:34:45.900Z,15.20
2018-01-26T21:37:13.516Z,16.90
2018-01-26T21:39:42.180Z,18.63
2018-01-26T21:42:09.855Z,17.50
2018-01-26T21:44:38.312Z,17.33
2018-01-26T21:47:05.976Z,18.20
2018-01-26T21:49:33.554Z,19.33
2018-01-26T21:52:01.218Z,16.63
2018-01-26T21:54:28.861Z,19.00
2018-01-26T21:56:56.475Z,17.07
2018-01-26T21:59:24.158Z,17.40
2018-01-26T22:01:52.556Z,20.13
2018-01-26T22:04:20.154Z,19.17
2018-01-26T22:06:53.410Z,21.00
2018-01-26T22:09:21.024Z,19.23
2018-01-26T22:11:49.433Z,17.70
2018-01-26T22:14:17.049Z,18.63
2018-01-26T22:16:45.219Z,16.93
2018-01-26T22:19:12.886Z,18.17
2018-01-26T22:21:41.281Z,18.80
2018-01-26T22:24:08.929Z,17.87
2018-01-26T22:26:37.816Z,15.57
2018-01-26T22:29:05.546Z,16.60
2018-01-26T22:31:33.134Z,14.30
2018-01-26T22:34:00.841Z,13.93
2018-01-26T22:36:28.452Z,14.30
2018-01-26T22:38:56.037Z,12.33
2018-01-26T22:41:23.612Z,11.03
2018-01-26T22:43:51.304Z,10.60
2018-01-26T22:46:19.034Z,13.63
2018-01-26T22:48:47.432Z,11.70
2018-01-26T22:51:15.552Z,12.43
2018-01-26T22:53:43.184Z,12.10
2018-01-26T22:56:10.789Z,10.43
2018-01-26T22:58:38.404Z,12.70
2018-01-26T23:01:06.032Z,11.60
2018-01-26T23:03:33.639Z,12.37
2018-01-26T23:06:01.273Z,11.43
2018-01-26T23:08:28.970Z,12.00
2018-01-26T23:10:56.539Z,13.37
2018-01-26T23:13:24.135Z,11.93
2018-01-26T23:15:52.567Z,10.17
2018-01-26T23:18:20.149Z,9.70
2018-01-26T23:20:48.613Z,10.13
2018-01-26T23:23:16.173Z,10.47
2018-01-26T23:25:43.702Z,8.63
2018-01-26T23:28:11.262Z,8.93
2018-01-26T23:30:38.873Z,7.43
2018-01-26T23:33:06.411Z,7.60
2018-01-26T23:35:33.975Z,8.20
2018-01-26T23:38:01.560Z,8.67
2018-01-26T23:40:29.185Z,9.73
2018-01-26T23:42:56.788Z,13.03
2018-01-26T23:45:24.396Z,12.60
2018-01-26T23:47:51.929Z,13.20
2018-01-26T23:50:20.289Z,16.70
2018-01-26T23:52:47.812Z,12.43
2018-01-26T23:55:15.510Z,13.10
2018-01-26T23:57:43.041Z,14.33
